Time;durP1;ratioP1;P1;durP2;ratioP2;P2;SDS_P1;SDS_P2;PMS_P1;PMS_P2;Temp;Humidity;BMP_temperature;BMP_pressure;BME280_temperature;BME280_humidity;BME280_pressure;Samples;Min_cycle;Max_cycle;Signal;HPM_P1;HPM_P2
2022/03/29 00:01:54;;;;;;;7.97;3.60;;;;;;;;;;5047959;28;20021;-80
2022/03/29 00:04:20;;;;;;;7.93;2.95;;;;;;;;;;5048492;28;20615;-80
2022/03/29 00:06:46;;;;;;;11.32;3.25;;;;;;;;;;5048675;28;20102;-79
2022/03/29 00:09:12;;;;;;;10.30;4.60;;;;;;;;;;5044819;28;20037;-80
2022/03/29 00:11:38;;;;;;;6.93;3.08;;;;;;;;;;5045812;28;20489;-79
2022/03/29 00:14:05;;;;;;;6.75;3.25;;;;;;;;;;5040911;28;20104;-80
2022/03/29 00:16:32;;;;;;;9.10;3.67;;;;;;;;;;5045566;28;20033;-80
2022/03/29 00:18:58;;;;;;;9.32;3.75;;;;;;;;;;5044621;28;20026;-80
2022/03/29 00:21:24;;;;;;;7.40;3.63;;;;;;;;;;5052340;28;20035;-80
2022/03/29 00:23:50;;;;;;;7.35;3.50;;;;;;;;;;5045269;28;20021;-80
2022/03/29 00:26:16;;;;;;;6.47;2.85;;;;;;;;;;5050025;28;20053;-80
2022/03/29 00:28:42;;;;;;;7.47;2.67;;;;;;;;;;5044989;28;20028;-80
2022/03/29 00:31:09;;;;;;;7.72;4.03;;;;;;;;;;5049569;28;20029;-79
2022/03/29 00:33:35;;;;;;;15.60;5.25;;;;;;;;;;5042415;28;20034;-80
2022/03/29 00:36:01;;;;;;;10.23;2.85;;;;;;;;;;5046010;28;20043;-79
2022/03/29 00:38:27;;;;;;;14.32;4.43;;;;;;;;;;5043358;28;20044;-80
2022/03/29 00:40:53;;;;;;;11.50;3.80;;;;;;;;;;5052684;28;20035;-79
2022/03/29 00:43:19;;;;;;;12.13;4.63;;;;;;;;;;5046626;28;20598;-80
2022/03/29 00:45:45;;;;;;;10.10;3.95;;;;;;;;;;5048475;28;20029;-80
2022/03/29 00:48:13;;;;;;;10.85;4.78;;;;;;;;;;5054126;28;20028;-80
2022/03/29 00:50:40;;;;;;;9.95;4.18;;;;;;;;;;5055776;28;21658;-80
2022/03/29 00:53:06;;;;;;;9.55;3.80;;;;;;;;;;5056697;28;20037;-80
2022/03/29 00:55:32;;;;;;;12.00;4.68;;;;;;;;;;5045959;28;20549;-80
2022/03/29 00:58:39;;;;;;;8.93;3.55;;;;;;;;;;5055870;28;20029;-80
2022/03/29 01:07:32;;;;;;;6.90;3.70;;;;;;;;;;5025825;28;20523;-80
2022/03/29 01:09:58;;;;;;;6.32;3.78;;;;;;;;;;5032325;28;20037;-80
2022/03/29 01:12:24;;;;;;;11.13;4.20;;;;;;;;;;5045413;28;20049;-81
2022/03/29 01:14:51;;;;;;;11.70;4.18;;;;;;;;;;5056136;28;20021;-80
2022/03/29 01:20:03;;;;;;;13.13;4.22;;;;;;;;;;5052321;28;20068;-80
2022/03/29 01:22:29;;;;;;;7.18;3.63;;;;;;;;;;5066791;28;20139;-80
2022/03/29 01:24:55;;;;;;;13.27;4.13;;;;;;;;;;5056305;28;20025;-80
2022/03/29 01:27:22;;;;;;;10.35;4.80;;;;;;;;;;5061724;28;20025;-81
2022/03/29 01:29:49;;;;;;;9.57;3.92;;;;;;;;;;5053733;28;20084;-80
2022/03/29 01:32:16;;;;;;;10.32;4.25;;;;;;;;;;5069670;28;20021;-80
2022/03/29 01:34:43;;;;;;;10.57;3.70;;;;;;;;;;5064297;28;20005;-80
2022/03/29 01:37:10;;;;;;;13.60;4.78;;;;;;;;;;5064418;28;20040;-80
2022/03/29 01:39:36;;;;;;;8.65;3.80;;;;;;;;;;5052498;28;20045;-80
2022/03/29 01:42:03;;;;;;;4.88;2.80;;;;;;;;;;5046203;28;20271;-80
2022/03/29 01:44:30;;;;;;;9.38;3.78;;;;;;;;;;5050950;28;20089;-81
2022/03/29 01:46:56;;;;;;;9.23;4.43;;;;;;;;;;5057182;28;20025;-79
2022/03/29 01:49:22;;;;;;;12.90;4.18;;;;;;;;;;5055465;28;20021;-81
2022/03/29 01:51:49;;;;;;;8.15;3.92;;;;;;;;;;5045222;28;20032;-81
2022/03/29 01:54:15;;;;;;;8.35;3.25;;;;;;;;;;5044487;28;20633;-81
2022/03/29 01:56:41;;;;;;;11.57;4.03;;;;;;;;;;5049944;28;20117;-80
2022/03/29 01:59:08;;;;;;;9.75;3.75;;;;;;;;;;5051515;28;20048;-80
2022/03/29 02:01:40;;;;;;;9.38;4.60;;;;;;;;;;5051206;28;20047;-81
2022/03/29 02:04:07;;;;;;;11.98;4.63;;;;;;;;;;5055390;28;20032;-81
2022/03/29 02:06:33;;;;;;;8.93;4.30;;;;;;;;;;5045160;28;20029;-80
2022/03/29 02:08:59;;;;;;;7.05;3.92;;;;;;;;;;5052948;28;20031;-80
2022/03/29 02:11:25;;;;;;;8.30;4.05;;;;;;;;;;5048640;28;20089;-80
2022/03/29 02:13:51;;;;;;;10.80;4.72;;;;;;;;;;5052581;28;20052;-80
2022/03/29 02:16:17;;;;;;;10.88;3.85;;;;;;;;;;5051983;28;20033;-80
2022/03/29 02:18:43;;;;;;;9.82;3.33;;;;;;;;;;5048990;28;20150;-80
2022/03/29 02:21:09;;;;;;;9.45;3.67;;;;;;;;;;5051352;28;20564;-80
2022/03/29 02:23:35;;;;;;;9.77;3.78;;;;;;;;;;5049044;28;20032;-80
2022/03/29 02:26:04;;;;;;;13.70;3.67;;;;;;;;;;5047870;28;20059;-80
2022/03/29 02:28:30;;;;;;;14.88;6.10;;;;;;;;;;5051195;28;20022;-81
2022/03/29 02:30:56;;;;;;;7.15;3.65;;;;;;;;;;5051221;28;20032;-80
2022/03/29 02:33:22;;;;;;;9.02;3.90;;;;;;;;;;5044851;28;20037;-80
2022/03/29 02:35:48;;;;;;;10.65;4.70;;;;;;;;;;5052003;28;20151;-81
2022/03/29 02:38:16;;;;;;;11.95;4.00;;;;;;;;;;5049875;28;20065;-81
2022/03/29 02:40:42;;;;;;;15.18;4.80;;;;;;;;;;5043129;28;20056;-80
2022/03/29 02:43:09;;;;;;;9.05;3.63;;;;;;;;;;5042838;28;20040;-80
2022/03/29 02:45:35;;;;;;;12.10;4.63;;;;;;;;;;5049499;28;20024;-81
2022/03/29 02:48:01;;;;;;;11.75;4.10;;;;;;;;;;5047074;28;20067;-80
2022/03/29 02:50:27;;;;;;;9.00;3.97;;;;;;;;;;5052548;28;20021;-81
2022/03/29 02:52:55;;;;;;;11.80;4.50;;;;;;;;;;5051511;28;20032;-80
2022/03/29 02:55:23;;;;;;;9.15;3.55;;;3.80;99.90;;;;;;5042736;28;20049;-80
2022/03/29 02:57:49;;;;;;;14.52;3.90;;;;;;;;;;5049737;28;20592;-81
2022/03/29 03:00:16;;;;;;;12.50;4.40;;;4.10;99.90;;;;;;5049969;28;20029;-81
2022/03/29 03:02:46;;;;;;;9.32;4.25;;;;;;;;;;5041473;28;20576;-80
2022/03/29 03:05:12;;;;;;;12.75;5.35;;;;;;;;;;5052861;28;20029;-81
2022/03/29 03:07:39;;;;;;;10.95;4.78;;;;;;;;;;5043657;28;20033;-80
2022/03/29 03:10:06;;;;;;;9.00;4.05;;;;;;;;;;5050961;28;20041;-80
2022/03/29 03:12:50;;;;;;;14.82;3.88;;;;;;;;;;5049781;28;20038;-80
2022/03/29 03:15:17;;;;;;;7.90;3.65;;;;;;;;;;5047472;28;20029;-81
2022/03/29 03:17:43;;;;;;;11.55;3.55;;;;;;;;;;5048499;28;20028;-80
2022/03/29 03:20:09;;;;;;;7.95;3.55;;;;;;;;;;5049085;28;20130;-80
2022/03/29 03:22:39;;;;;;;7.10;4.07;;;;;;;;;;5047785;28;20048;-80
2022/03/29 03:25:05;;;;;;;14.23;4.40;;;;;;;;;;5045698;28;20612;-81
2022/03/29 03:27:31;;;;;;;9.15;3.58;;;;;;;;;;5050244;28;20062;-80
2022/03/29 03:29:57;;;;;;;11.98;4.22;;;;;;;;;;5047600;28;20026;-80
2022/03/29 03:32:23;;;;;;;9.70;4.07;;;;;;;;;;5045767;28;20048;-80
2022/03/29 03:34:49;;;;;;;11.40;4.68;;;;;;;;;;5040553;28;20055;-81
2022/03/29 03:37:15;;;;;;;12.07;4.03;;;;;;;;;;5052960;28;20097;-80
2022/03/29 03:39:41;;;;;;;10.73;4.25;;;;;;;;;;5044606;28;20025;-81
2022/03/29 03:42:11;;;;;;;7.95;4.32;;;;;;;;;;5050481;28;20048;-80
2022/03/29 03:44:38;;;;;;;8.50;3.38;;;;;;;;;;5049259;28;20025;-80
2022/03/29 03:47:05;;;;;;;16.85;4.80;;;;;;;;;;5042783;28;20037;-81
2022/03/29 03:49:31;;;;;;;8.68;4.15;;;;;;;;;;5051051;28;20033;-80
2022/03/29 03:51:57;;;;;;;8.45;4.00;;;;;;;;;;5047693;28;20097;-80
2022/03/29 03:54:23;;;;;;;10.13;4.22;;;;;;;;;;5045628;28;20450;-80
2022/03/29 03:56:49;;;;;;;10.90;4.30;;;3.90;99.90;;;;;;5047698;28;20021;-81
2022/03/29 03:59:15;;;;;;;9.20;4.47;;;;;;;;;;5046489;28;20025;-80
2022/03/29 04:01:41;;;;;;;12.82;5.35;;;;;;;;;;5043681;28;20045;-81
2022/03/29 04:04:07;;;;;;;6.50;3.75;;;;;;;;;;5038769;28;20033;-80
2022/03/29 04:06:33;;;;;;;7.72;3.58;;;;;;;;;;5053901;28;20036;-80
2022/03/29 04:09:00;;;;;;;12.13;4.55;;;;;;;;;;5047759;28;20032;-80
2022/03/29 04:11:26;;;;;;;11.77;4.82;;;;;;;;;;5043438;28;20299;-80
2022/03/29 04:13:53;;;;;;;11.63;5.78;;;;;;;;;;5050317;28;20091;-80
2022/03/29 04:16:20;;;;;;;10.82;4.97;;;;;;;;;;5051648;28;20035;-81
2022/03/29 04:18:46;;;;;;;10.60;4.28;;;;;;;;;;5049329;28;20033;-80
2022/03/29 04:21:12;;;;;;;9.02;4.25;;;;;;;;;;5053316;28;20029;-81
2022/03/29 04:23:38;;;;;;;9.52;4.85;;;;;;;;;;5044403;28;20064;-80
2022/03/29 04:26:04;;;;;;;10.52;5.00;;;;;;;;;;5039578;28;20066;-81
2022/03/29 04:28:33;;;;;;;13.70;6.03;;;;;;;;;;5051775;28;20053;-80
2022/03/29 04:31:08;;;;;;;15.43;6.28;;;;;;;;;;5048827;28;20029;-80
2022/03/29 04:33:34;;;;;;;8.43;4.05;;;;;;;;;;5040424;28;20041;-78
2022/03/29 04:36:00;;;;;;;11.63;4.75;;;;;;;;;;5034252;28;20029;-82
2022/03/29 04:38:27;;;;;;;18.08;5.68;;;;;;;;;;5039187;28;20022;-78
2022/03/29 04:40:53;;;;;;;7.18;4.30;;;;;;;;;;5040122;28;20037;-79
2022/03/29 04:43:19;;;;;;;6.05;4.10;;;;;;;;;;5047276;28;20055;-81
2022/03/29 04:45:45;;;;;;;12.70;4.95;;;;;;;;;;5042930;28;20036;-81
2022/03/29 04:48:12;;;;;;;8.90;3.80;;;;;;;;;;5048556;28;20616;-84
2022/03/29 04:50:38;;;;;;;12.00;4.85;;;;;;;;;;5044759;28;20044;-83
2022/03/29 04:53:04;;;;;;;10.68;4.78;;;;;;;;;;5036016;28;20048;-83
2022/03/29 04:55:30;;;;;;;12.60;5.45;;;;;;;;;;5041758;28;20030;-82
2022/03/29 04:57:57;;;;;;;12.40;5.20;;;;;;;;;;5042453;28;20420;-82
2022/03/29 05:00:23;;;;;;;15.02;5.72;;;;;;;;;;5050137;28;20184;-81
2022/03/29 05:02:49;;;;;;;13.23;5.15;;;;;;;;;;5041054;28;20490;-82
2022/03/29 05:05:15;;;;;;;13.55;6.07;;;;;;;;;;5051626;28;20394;-83
2022/03/29 05:07:42;;;;;;;9.93;4.65;;;;;;;;;;5039760;28;20033;-84
2022/03/29 05:10:08;;;;;;;11.50;4.35;;;;;;;;;;5046847;28;20021;-81
2022/03/29 05:12:41;;;;;;;16.92;5.10;;;;;;;;;;5040906;28;20052;-81
2022/03/29 05:15:08;;;;;;;10.35;4.35;;;;;;;;;;5054232;28;20021;-82
2022/03/29 05:17:35;;;;;;;8.93;3.95;;;;;;;;;;5049080;28;20513;-80
2022/03/29 05:20:01;;;;;;;11.75;5.28;;;;;;;;;;5039927;28;20029;-82
2022/03/29 05:22:27;;;;;;;6.50;4.05;;;;;;;;;;5036044;28;20042;-84
2022/03/29 05:24:53;;;;;;;11.93;4.70;;;;;;;;;;5038382;28;20029;-82
2022/03/29 05:27:19;;;;;;;10.13;5.53;;;;;;;;;;5043010;28;20045;-83
2022/03/29 05:29:45;;;;;;;20.20;7.80;;;;;;;;;;5044842;28;20486;-82
2022/03/29 05:32:11;;;;;;;24.13;8.48;;;;;;;;;;5050829;28;20024;-82
2022/03/29 05:34:37;;;;;;;19.25;8.15;;;;;;;;;;5037660;28;20033;-84
2022/03/29 05:37:03;;;;;;;29.58;9.77;;;;;;;;;;5046283;28;20025;-83
2022/03/29 05:39:29;;;;;;;26.13;10.30;;;;;;;;;;5040126;28;20039;-83
2022/03/29 05:41:55;;;;;;;18.90;8.82;;;;;;;;;;5046853;28;20029;-84
2022/03/29 05:44:21;;;;;;;15.43;6.78;;;;;;;;;;5060025;28;20029;-84
2022/03/29 05:49:32;;;;;;;9.25;4.57;;;;;;;;;;5063269;28;20071;-81
2022/03/29 05:51:58;;;;;;;15.20;7.22;;;;;;;;;;5057808;28;20016;-82
2022/03/29 05:54:24;;;;;;;15.10;5.45;;;;;;;;;;5053289;28;20037;-81
2022/03/29 05:56:50;;;;;;;13.52;5.78;;;;;;;;;;5053621;28;20460;-82
2022/03/29 05:59:16;;;;;;;10.48;4.38;;;;;;;;;;5058691;28;20021;-82
2022/03/29 06:01:42;;;;;;;12.68;5.85;;;;;;;;;;5052555;28;20032;-81
2022/03/29 06:04:08;;;;;;;13.35;5.95;;;;;;;;;;5053335;28;20068;-82
2022/03/29 06:06:36;;;;;;;9.73;4.50;;;;;;;;;;5042488;28;20028;-82
2022/03/29 06:09:03;;;;;;;9.05;4.45;;;;;;;;;;5044875;28;20441;-82
2022/03/29 06:11:29;;;;;;;14.15;4.97;;;;;;;;;;5044342;28;20112;-81
2022/03/29 06:13:55;;;;;;;17.42;6.85;;;;;;;;;;5056491;28;20040;-81
2022/03/29 06:16:21;;;;;;;22.13;6.85;;;;;;;;;;5047617;28;20393;-81
2022/03/29 06:18:47;;;;;;;21.48;7.78;;;;;;;;;;5043319;28;20079;-84
2022/03/29 06:21:13;;;;;;;16.38;6.57;;;;;;;;;;5043367;28;20425;-83
2022/03/29 06:23:39;;;;;;;14.73;6.85;;;;;;;;;;5042144;28;20025;-86
2022/03/29 06:26:05;;;;;;;12.88;6.22;;;;;;;;;;5039189;28;20036;-80
2022/03/29 06:28:31;;;;;;;13.82;5.20;;;;;;;;;;5048097;28;20215;-83
2022/03/29 06:30:57;;;;;;;12.73;5.70;;;;;;;;;;5047798;28;20081;-80
2022/03/29 06:33:23;;;;;;;8.50;4.80;;;;;;;;;;5055874;28;20093;-83
2022/03/29 06:35:49;;;;;;;11.98;4.65;;;;;;;;;;5041791;28;20101;-82
2022/03/29 06:38:21;;;;;;;12.15;5.25;;;;;;;;;;5047671;28;20025;-81
2022/03/29 06:40:48;;;;;;;22.13;5.07;;;;;;;;;;5049107;28;20029;-82
2022/03/29 06:43:14;;;;;;;17.83;5.60;;;;;;;;;;5049685;28;20032;-84
2022/03/29 06:45:40;;;;;;;12.63;5.00;;;;;;;;;;5050405;28;20509;-83
2022/03/29 06:48:07;;;;;;;15.20;5.65;;;;;;;;;;5053010;28;20034;-81
2022/03/29 06:50:35;;;;;;;9.45;4.45;;;;;;;;;;5053846;28;20090;-81
2022/03/29 06:53:01;;;;;;;12.23;5.60;;;;;;;;;;5048717;28;20033;-81
2022/03/29 06:55:28;;;;;;;20.75;6.07;;;;;;;;;;5052395;28;20071;-83
2022/03/29 06:57:55;;;;;;;11.90;5.45;;;;;;;;;;5048207;28;20021;-81
2022/03/29 07:00:21;;;;;;;12.27;4.95;;;;;;;;;;5054403;28;20515;-81
2022/03/29 07:02:48;;;;;;;14.05;4.97;;;;;;;;;;5044932;28;20067;-80
2022/03/29 07:05:14;;;;;;;14.50;5.10;;;;;;;;;;5049386;28;20029;-81
2022/03/29 07:07:41;;;;;;;18.50;5.80;;;;;;;;;;5048059;28;20092;-81
2022/03/29 07:12:53;;;;;;;8.90;5.20;;;;;;;;;;5050583;28;20051;-80
2022/03/29 07:15:19;;;;;;;15.20;5.70;;;;;;;;;;5050176;28;20037;-81
2022/03/29 07:17:45;;;;;;;12.88;5.10;;;;;;;;;;5045670;28;20063;-83
2022/03/29 07:20:12;;;;;;;16.52;4.63;;;;;;;;;;5059880;28;20025;-83
2022/03/29 07:22:38;;;;;;;10.10;4.68;;;;;;;;;;5051626;28;20519;-83
2022/03/29 07:25:04;;;;;;;18.52;4.60;;;;;;;;;;5045252;28;20029;-82
2022/03/29 07:27:31;;;;;;;20.95;5.60;;;;;;;;;;5051373;28;20044;-83
2022/03/29 07:29:59;;;;;;;11.90;4.63;;;;;;;;;;5055877;28;20030;-83
2022/03/29 07:32:25;;;;;;;14.65;4.90;;;;;;;;;;5045599;28;20029;-84
2022/03/29 07:34:53;;;;;;;13.77;5.35;;;;;;;;;;5039644;28;20033;-84
2022/03/29 07:37:19;;;;;;;9.77;4.80;;;;;;;;;;5049511;28;20093;-85
2022/03/29 07:39:46;;;;;;;10.30;5.07;;;;;;;;;;5061176;28;20020;-85
2022/03/29 07:42:12;;;;;;;10.05;4.90;;;;;;;;;;5059863;28;20021;-84
2022/03/29 07:44:38;;;;;;;10.35;5.65;;;;;;;;;;5062756;28;20008;-84
2022/03/29 07:47:04;;;;;;;10.73;5.07;;;9.40;99.90;;;;;;5052723;28;20041;-83
2022/03/29 07:49:30;;;;;;;11.68;5.40;;;;;;;;;;5053194;28;20036;-83
2022/03/29 07:51:57;;;;;;;9.07;5.00;;;;;;;;;;5047627;28;20195;-81
2022/03/29 07:54:23;;;;;;;11.30;4.82;;;;;;;;;;5048160;28;20044;-80
2022/03/29 07:56:49;;;;;;;9.98;3.97;;;;;;;;;;5047351;28;20028;-80
2022/03/29 07:59:15;;;;;;;10.02;4.40;;;;;;;;;;5048384;28;20029;-79
2022/03/29 08:01:41;;;;;;;11.98;4.60;;;;;;;;;;5049235;28;20048;-80
2022/03/29 08:04:07;;;;;;;10.75;4.45;;;;;;;;;;5048171;28;20033;-80
2022/03/29 08:06:33;;;;;;;12.52;6.00;;;;;;;;;;5050291;28;20112;-80
2022/03/29 08:08:59;;;;;;;10.82;4.43;;;;;;;;;;5046032;28;20021;-81
2022/03/29 08:11:25;;;;;;;11.50;4.90;;;;;;;;;;5047485;28;20045;-81
2022/03/29 08:13:51;;;;;;;9.38;4.57;;;;;;;;;;5049568;28;20033;-80
2022/03/29 08:16:17;;;;;;;12.82;5.18;;;;;;;;;;5055104;28;20024;-81
2022/03/29 08:18:43;;;;;;;10.73;4.47;;;;;;;;;;5049288;28;20036;-81
2022/03/29 08:24:08;;;;;;;10.85;4.78;;;;;;;;;;5051197;28;20054;-81
2022/03/29 08:26:34;;;;;;;10.68;4.97;;;;;;;;;;5046988;28;20116;-81
2022/03/29 08:29:00;;;;;;;13.18;4.95;;;;;;;;;;5051866;28;20033;-81
2022/03/29 08:31:26;;;;;;;19.88;5.70;;;;;;;;;;5053135;28;20040;-81
2022/03/29 08:33:51;;;;;;;13.20;5.55;;;;;;;;;;5046069;28;20041;-82
2022/03/29 08:36:17;;;;;;;11.60;5.35;;;;;;;;;;5044936;28;20044;-83
2022/03/29 08:38:44;;;;;;;9.65;4.38;;;;;;;;;;5039774;28;20029;-82
2022/03/29 08:41:10;;;;;;;13.40;5.82;;;;;;;;;;5045000;28;20435;-80
2022/03/29 08:43:36;;;;;;;11.30;5.00;;;;;;;;;;5047077;28;20033;-81
2022/03/29 08:46:02;;;;;;;11.98;4.95;;;14.40;99.90;;;;;;5045465;28;20036;-81
2022/03/29 08:48:29;;;;;;;13.38;5.55;;;;;;;;;;5052773;28;20030;-84
2022/03/29 08:50:57;;;;;;;11.50;5.13;;;;;;;;;;5044905;28;20057;-80
2022/03/29 08:53:24;;;;;;;11.35;5.03;;;;;;;;;;5042955;28;20071;-81
2022/03/29 08:55:50;;;;;;;14.68;5.97;;;;;;;;;;5048817;28;20029;-81
2022/03/29 08:58:17;;;;;;;18.38;6.03;;;;;;;;;;5046361;28;20033;-82
2022/03/29 09:00:45;;;;;;;18.17;6.28;;;;;;;;;;5046838;28;20029;-82
2022/03/29 09:03:14;;;;;;;10.55;5.35;;;22.60;66.50;;;;;;5048837;28;20018;-81
2022/03/29 09:05:40;;;;;;;14.30;5.85;;;;;;;;;;5044030;28;20017;-81
2022/03/29 09:08:09;;;;;;;16.58;6.55;;;;;;;;;;5039613;28;22256;-81
2022/03/29 09:11:01;;;;;;;22.05;6.85;;;23.60;58.50;;;;;;5050741;28;20033;-82
2022/03/29 09:13:29;;;;;;;14.52;5.72;;;22.80;58.80;;;;;;5046451;28;20471;-81
2022/03/29 09:16:00;;;;;;;15.15;7.28;;;;;;;;;;5044689;28;20025;-83
2022/03/29 09:18:27;;;;;;;18.02;6.15;;;;;;;;;;5045594;28;20037;-80
2022/03/29 09:21:07;;;;;;;15.02;6.40;;;;;;;;;;5043643;28;20543;-82
2022/03/29 09:23:34;;;;;;;14.30;6.72;;;;;;;;;;5053772;28;20040;-81
2022/03/29 09:26:01;;;;;;;14.02;7.65;;;;;;;;;;5044230;28;20636;-81
2022/03/29 09:28:32;;;;;;;17.73;7.30;;;;;;;;;;5052380;28;20030;-81
2022/03/29 09:30:58;;;;;;;21.48;6.70;;;;;;;;;;5048247;28;20667;-81
2022/03/29 09:33:31;;;;;;;15.88;6.25;;;;;;;;;;5052849;28;20053;-83
2022/03/29 09:36:07;;;;;;;11.75;5.53;;;18.00;73.70;;;;;;5048942;28;20037;-81
2022/03/29 09:38:35;;;;;;;16.38;7.00;;;;;;;;;;5051860;28;20138;-81
2022/03/29 09:41:02;;;;;;;16.35;7.50;;;;;;;;;;5047638;28;20032;-82
2022/03/29 09:43:29;;;;;;;17.00;7.38;;;18.20;73.90;;;;;;5048359;28;20182;-81
2022/03/29 09:45:58;;;;;;;23.73;7.60;;;;;;;;;;5042731;28;20025;-82
2022/03/29 09:48:27;;;;;;;14.40;6.07;;;;;;;;;;5046243;28;20025;-84
2022/03/29 09:50:55;;;;;;;16.13;6.53;;;;;;;;;;5042288;28;20033;-80
2022/03/29 09:53:38;;;;;;;17.50;6.75;;;;;;;;;;5051057;28;20223;-82
2022/03/29 09:56:04;;;;;;;18.25;7.45;;;;;;;;;;5040939;28;20053;-82
2022/03/29 09:58:31;;;;;;;16.70;5.70;;;;;;;;;;5052638;28;20041;-81
2022/03/29 10:00:57;;;;;;;15.13;6.20;;;;;;;;;;5052919;28;20055;-81
2022/03/29 10:03:26;;;;;;;16.00;7.35;;;;;;;;;;5043165;28;20048;-80
2022/03/29 10:05:54;;;;;;;14.52;6.68;;;;;;;;;;5047981;28;20036;-81
2022/03/29 10:11:13;;;;;;;18.05;8.38;;;;;;;;;;5044680;28;20105;-82
2022/03/29 10:13:39;;;;;;;20.98;8.05;;;;;;;;;;5039803;28;20033;-81
2022/03/29 10:16:06;;;;;;;20.33;9.27;;;;;;;;;;5045838;28;20513;-81
2022/03/29 10:18:32;;;;;;;23.02;7.68;;;;;;;;;;5050497;28;20034;-81
2022/03/29 10:21:00;;;;;;;16.40;6.90;;;;;;;;;;5045260;28;20070;-82
2022/03/29 10:23:28;;;;;;;18.05;7.40;;;;;;;;;;5048811;28;20029;-81
2022/03/29 10:25:54;;;;;;;19.42;8.00;;;;;;;;;;5050988;28;20036;-82
2022/03/29 10:28:21;;;;;;;20.58;7.85;;;;;;;;;;5042125;28;20043;-85
2022/03/29 10:30:47;;;;;;;19.33;8.05;;;;;;;;;;5047570;28;20040;-82
2022/03/29 10:33:23;;;;;;;18.88;8.00;;;;;;;;;;5038334;28;20491;-85
2022/03/29 10:36:02;;;;;;;17.02;7.93;;;;;;;;;;5049500;28;20025;-84
2022/03/29 10:38:46;;;;;;;20.85;7.68;;;;;;;;;;5053514;28;20026;-81
2022/03/29 10:41:28;;;;;;;17.92;7.63;;;;;;;;;;5051608;28;20066;-83
2022/03/29 10:44:12;;;;;;;16.27;8.52;;;;;;;;;;5045033;28;20040;-83
2022/03/29 10:46:43;;;;;;;17.83;7.43;;;;;;;;;;5045902;28;20108;-83
2022/03/29 10:49:15;;;;;;;30.55;11.95;;;;;;;;;;5049272;28;20043;-83
2022/03/29 10:51:41;;;;;;;17.25;8.05;;;;;;;;;;5050235;28;20036;-83
2022/03/29 10:54:24;;;;;;;16.55;7.45;;;;;;;;;;5044086;28;20100;-84
2022/03/29 10:57:00;;;;;;;16.85;8.15;;;;;;;;;;5051648;28;20032;-83
2022/03/29 10:59:27;;;;;;;22.42;8.05;;;;;;;;;;5045181;28;20041;-82
2022/03/29 11:02:07;;;;;;;22.13;8.80;;;;;;;;;;5045665;28;20029;-82
2022/03/29 11:04:33;;;;;;;18.23;7.28;;;;;;;;;;5045805;28;20029;-82
2022/03/29 11:07:05;;;;;;;17.35;6.90;;;;;;;;;;5046599;28;20021;-83
2022/03/29 11:09:31;;;;;;;19.90;7.93;;;;;;;;;;5050419;28;20323;-82
2022/03/29 11:11:58;;;;;;;18.92;7.65;;;;;;;;;;5046536;28;20551;-84
2022/03/29 11:14:31;;;;;;;20.73;7.30;;;;;;;;;;5041757;28;20041;-83
2022/03/29 11:16:56;;;;;;;;;;;;;;;;;;5038563;28;20128;-83
2022/03/29 11:19:38;;;;;;;15.63;7.10;;;;;;;;;;5040268;28;19967;-85
2022/03/29 11:22:31;;;;;;;19.98;7.03;;;19.60;67.40;;;;;;5045549;28;20044;-82
2022/03/29 11:25:01;;;;;;;16.45;7.57;;;19.50;66.50;;;;;;5040631;28;20096;-83
2022/03/29 11:27:34;;;;;;;16.15;6.63;;;;;;;;;;5046361;28;20036;-82
2022/03/29 11:29:59;;;;;;;;;;;;;;;;;;5046660;28;20072;-83
2022/03/29 11:32:25;;;;;;;14.75;6.97;;;;;;;;;;5048308;28;19921;-82
2022/03/29 11:34:52;;;;;;;15.35;7.55;;;;;;;;;;5041590;28;20037;-81
2022/03/29 11:37:33;;;;;;;18.27;7.10;;;;;;;;;;5044655;28;20025;-81
2022/03/29 11:40:02;;;;;;;18.08;7.95;;;;;;;;;;5035012;28;20062;-84
2022/03/29 11:42:49;;;;;;;26.15;8.93;;;;;;;;;;5040752;28;20021;-85
2022/03/29 11:45:15;;;;;;;19.42;7.75;;;;;;;;;;5037682;28;20029;-85
2022/03/29 11:47:51;;;;;;;16.60;7.70;;;;;;;;;;5040390;28;20108;-86
2022/03/29 11:50:29;;;;;;;20.13;7.68;;;;;;;;;;5047905;28;20034;-86
2022/03/29 11:52:55;;;;;;;16.88;7.30;;;;;;;;;;5045477;28;20049;-84
2022/03/29 11:55:22;;;;;;;14.13;7.03;;;;;;;;;;5044461;28;20026;-83
2022/03/29 11:57:48;;;;;;;19.77;7.65;;;;;;;;;;5039002;28;20033;-84
2022/03/29 12:00:28;;;;;;;16.48;7.15;;;;;;;;;;5051212;28;20021;-85
2022/03/29 12:02:54;;;;;;;17.85;8.20;;;;;;;;;;5039905;28;20040;-86
2022/03/29 12:05:24;;;;;;;16.55;7.03;;;;;;;;;;5038817;28;20037;-84
2022/03/29 12:07:56;;;;;;;19.02;7.20;;;;;;;;;;5035740;28;20021;-85
2022/03/29 12:10:29;;;;;;;20.52;7.15;;;;;;;;;;5044658;28;20036;-84
2022/03/29 12:12:55;;;;;;;18.73;8.35;;;;;;;;;;5042816;28;20531;-85
2022/03/29 12:15:22;;;;;;;18.55;8.65;;;;;;;;;;5041991;28;20033;-85
2022/03/29 12:17:51;;;;;;;21.10;9.15;;;;;;;;;;5048650;28;20078;-84
2022/03/29 12:20:32;;;;;;;21.83;8.20;;;;;;;;;;5038524;28;20029;-83
2022/03/29 12:22:58;;;;;;;16.85;8.48;;;;;;;;;;5038351;28;20037;-85
2022/03/29 12:25:24;;;;;;;16.63;8.10;;;;;;;;;;5040819;28;20045;-86
2022/03/29 12:27:51;;;;;;;22.92;7.75;;;;;;;;;;5041816;28;20033;-86
2022/03/29 12:30:17;;;;;;;20.63;8.52;;;;;;;;;;5049310;28;20052;-84
2022/03/29 12:32:45;;;;;;;19.38;8.15;;;;;;;;;;5039971;28;20041;-85
2022/03/29 12:35:15;;;;;;;22.60;8.38;;;;;;;;;;5036352;28;20029;-86
2022/03/29 12:37:46;;;;;;;19.33;8.90;;;;;;;;;;5036987;28;20025;-87
2022/03/29 12:40:14;;;;;;;28.50;9.63;;;;;;;;;;5039168;28;20505;-84
2022/03/29 12:42:40;;;;;;;18.20;9.48;;;;;;;;;;5037446;28;20053;-84
2022/03/29 12:45:11;;;;;;;20.10;9.48;;;;;;;;;;5045307;28;20034;-83
2022/03/29 12:47:38;;;;;;;17.50;8.05;;;;;;;;;;5042225;28;20033;-83
2022/03/29 12:50:05;;;;;;;17.00;7.28;;;;;;;;;;5044706;28;20037;-85
2022/03/29 12:52:38;;;;;;;18.17;7.70;;;;;;;;;;5044934;28;20025;-85
2022/03/29 12:55:05;;;;;;;18.45;8.98;;;;;;;;;;5038998;28;20120;-84
2022/03/29 12:57:39;;;;;;;21.50;9.20;;;;;;;;;;5041840;28;20044;-84
2022/03/29 13:00:09;;;;;;;15.80;7.80;;;;;;;;;;5042898;28;20528;-85
2022/03/29 13:02:36;;;;;;;18.80;8.02;;;;;;;;;;5046154;28;20501;-85
2022/03/29 13:05:03;;;;;;;16.45;7.22;;;;;;;;;;5037227;28;20041;-83
2022/03/29 13:07:39;;;;;;;16.80;7.70;;;;;;;;;;5049871;28;20548;-86
2022/03/29 13:10:32;;;;;;;21.70;7.97;;;;;;;;;;5049337;28;20120;-84
2022/03/29 13:13:02;;;;;;;21.15;7.10;;;;;;;;;;5044683;28;20117;-85
2022/03/29 13:15:37;;;;;;;16.75;6.35;;;;;;;;;;5043607;28;20033;-84
2022/03/29 13:18:03;;;;;;;18.23;8.07;;;;;;;;;;5034952;28;20029;-84
2022/03/29 13:20:29;;;;;;;18.50;7.47;;;;;;;;;;5039161;28;20037;-84
2022/03/29 13:22:55;;;;;;;15.32;7.57;;;;;;;;;;5036563;28;20396;-85
2022/03/29 13:25:34;;;;;;;17.55;7.50;;;;;;;;;;5041967;28;20037;-84
2022/03/29 13:28:00;;;;;;;15.95;6.75;;;;;;;;;;5036850;28;20043;-81
2022/03/29 13:30:26;;;;;;;18.88;7.97;;;;;;;;;;5043788;28;20052;-84
2022/03/29 13:32:52;;;;;;;17.00;6.85;;;;;;;;;;5047280;28;20045;-83
2022/03/29 13:35:21;;;;;;;20.65;7.20;;;;;;;;;;5041946;28;20128;-82
2022/03/29 13:37:47;;;;;;;11.45;6.38;;;;;;;;;;5050450;28;20045;-84
2022/03/29 13:40:13;;;;;;;16.83;7.40;;;;;;;;;;5040139;28;20025;-84
2022/03/29 13:42:39;;;;;;;15.05;5.10;;;;;;;;;;5049523;28;20578;-85
2022/03/29 13:45:05;;;;;;;13.13;5.10;;;;;;;;;;5043118;28;20029;-85
2022/03/29 13:47:34;;;;;;;10.95;4.60;;;;;;;;;;5046728;28;20033;-86
2022/03/29 13:50:00;;;;;;;11.30;4.43;;;;;;;;;;5056481;28;20033;-85
2022/03/29 13:52:26;;;;;;;17.55;6.00;;;19.30;62.60;;;;;;5047707;28;20055;-84
2022/03/29 13:54:52;;;;;;;15.05;4.95;;;;;;;;;;5053088;28;20049;-85
2022/03/29 13:57:18;;;;;;;17.58;6.07;;;;;;;;;;5047597;28;20048;-85
2022/03/29 13:59:44;;;;;;;14.57;5.18;;;;;;;;;;5042709;28;20021;-84
2022/03/29 14:02:10;;;;;;;16.88;6.85;;;;;;;;;;5036341;28;20025;-84
2022/03/29 14:04:36;;;;;;;18.55;6.68;;;;;;;;;;5038746;28;20035;-84
2022/03/29 14:07:03;;;;;;;15.93;6.95;;;;;;;;;;5041379;28;20057;-82
2022/03/29 14:09:29;;;;;;;15.82;6.55;;;;;;;;;;5043288;28;20100;-84
2022/03/29 14:11:55;;;;;;;16.10;6.50;;;;;;;;;;5038949;28;20036;-87
2022/03/29 14:14:21;;;;;;;15.13;6.38;;;;;;;;;;5037474;28;20038;-86
2022/03/29 14:16:47;;;;;;;20.20;6.32;;;;;;;;;;5037421;28;20091;-84
2022/03/29 14:19:13;;;;;;;15.85;8.57;;;;;;;;;;5044914;28;20125;-87
2022/03/29 14:21:39;;;;;;;14.93;6.40;;;;;;;;;;5029933;28;20041;-83
2022/03/29 14:24:05;;;;;;;13.98;5.63;;;;;;;;;;5035276;28;20021;-84
2022/03/29 14:26:32;;;;;;;16.90;5.45;;;;;;;;;;5033920;28;20033;-82
2022/03/29 14:29:00;;;;;;;16.83;6.95;;;;;;;;;;5033289;28;20065;-83
2022/03/29 14:31:26;;;;;;;17.70;6.40;;;;;;;;;;5032231;28;20079;-83
2022/03/29 14:33:52;;;;;;;16.98;6.65;;;;;;;;;;5033063;28;20046;-83
2022/03/29 14:36:18;;;;;;;16.83;6.78;;;;;;;;;;5037212;28;20047;-83
2022/03/29 14:38:44;;;;;;;18.30;5.07;;;;;;;;;;5042548;28;20043;-83
2022/03/29 14:41:10;;;;;;;18.85;6.90;;;;;;;;;;5032437;28;20565;-81
2022/03/29 14:43:36;;;;;;;24.13;8.20;;;;;;;;;;5039338;28;20039;-81
2022/03/29 14:46:03;;;;;;;21.65;7.15;;;;;;;;;;5043049;28;20036;-83
2022/03/29 14:48:29;;;;;;;20.02;7.65;;;;;;;;;;5049291;28;20504;-82
2022/03/29 14:50:57;;;;;;;17.60;7.95;;;;;;;;;;5042642;28;20080;-80
2022/03/29 14:53:23;;;;;;;22.10;7.28;;;;;;;;;;5039978;28;20033;-81